Santiago de Chile, Chile

10:04 AM CLT en Septiembre 02, 2014 (GMT -0400)
Pudahuel Bezanilla Solar | Change Station
CLOSE
Current Station
Estación meteorológica personal
Location: Santiago, REGIóN METROPOLITANA DE SANTIAGO
Altura: 1535 ft
Estaciones meteorológicas cercanas

Alt 1535 ft 33.43 °S, 70.82 °W | Updated 17 seconds ago

Overcast
Nublado
50.0 ° F
Sensación térmica 50.0 ° F
N
0.0
Viento Variable Viento desde SE
Gusts 0.0 mph

Hoy
Alta -- | Baja -- ° F
--% Posibilidad de precipitaciones
Ayer
Alta -- | Baja -- ° F
Precip. -- pul
6:59 AM 6:26 PM
Cuarto creciente, 51% visible
Presión 29.95 pul
Visibilidad 3.1 Millas
Nubes Nublado 12000 ft
Punto de rocío 50 ° F
Humedad 99%
Precipitaciones 0.00 pul
Espesor de la nieve No disponible.
UV 1.0 de una escala de 12
Polen No disponible.
Calidad del aire No disponible.
Flu Activity No disponible.
METAR SCEL 021400Z VRB02KT 5000 BR OVC120 10/08 Q1014 NOSIG

More Conditions Fewer Conditions

Presión 29.95 pul
Visibilidad 3.1 Millas
Nubes Nublado 12000 ft
Punto de rocío 50 ° F
Humedad 99%
Precipitaciones 0.00 pul
Espesor de la nieve No disponible.
UV 1.0 de una escala de 12
Polen No disponible.
Calidad del aire No disponible.
Flu Activity No disponible.
METAR SCEL 021400Z VRB02KT 5000 BR OVC120 10/08 Q1014 NOSIG

More Conditions Fewer Conditions

10-Day Weather Forecast

Almanac

Astronomía

Sep. 02, 2014 Salida Puesta
Hora real 6:59 AM CLT 6:26 PM CLT
Crepúsculo civil 6:34 AM CLT 6:51 PM CLT
Crepúsculo náutico 6:05 AM CLT 7:20 PM CLT
Crepúsculo astronómico 5:37 AM CLT 7:48 PM CLT
Luna 11:53 AM CLT 1:07 AM CLT
Horas de luz 12h 16m
Horas de luz
11h 26m
Tomorrow will be 1m 58s longer.
Cuarto creciente, 51% of the Moon is Illuminated
Hoy
Cuarto creciente
Sep 8
Luna llena
Sep 15
Cuarto menguante
Sep 24
Nueva
Oct 1
Cuarto creciente

Extremos de ayer

Máximos del país Bajas del país

Community

WunderPhotos

Upload Photos

1,749,670 ¡fotos cargadas!

WunderBlogs® & News

Nearby

Calidad del aire

Not available.

Grosos de nieve

Not available.

Actividad de terremotos

Ciudad Distance Mag. Tiempo y dato
No hay informes recientes de la actividad sísmica.
Magnitud mínima muestra es 2,5.

Temperaturas de aguas costeras

Lugar Temperatura
Sin partes meteorológicos de las estaciones

Estaciones meteorológicas cercanas